Latest Coastal Weather Observations for Ulladulla

IDN60701

Issued at 4:22 pm EDT Thursday 25 February 2021 (issued every 10 minutes, with the page automatically refreshed every 10 minutes)

About coastal observations | Map of coastal stations | Coastal observations for NSW | Marine services | Other Formats
Station Details ID: 069138 Name: ULLADULLA AWS Lat: -35.36 Lon: 150.48 Height: 35.7 m
Data from the previous 72 hours. | See also: Recent months at Ulladulla
Date/Time
EDT
Wind Sea
Height
m
Swell Vis
km
Cloud Weather Temp
°C
Press
MSL
hPa
Rain since
9am
mm
Dir  Spd
kts
Gust
kts
Height
m
Period
s
Dir
25/04:00pm NNE 6 9 - - - - - - - 23.4 1006.5 -
25/03:30pm NE 7 12 - - - - - - - 22.7 1007.0 -
25/03:00pm NNE 7 13 - - - - - - - 22.6 1007.6 0.0
25/02:30pm NNE 6 8 - - - - - - - 21.8 1007.6 -
25/02:00pm NNE 4 6 - - - - - - - 21.9 1008.3 0.0
25/01:30pm N 7 13 - - - - - - - 21.4 1009.6 0.0
25/01:00pm N 8 12 - - - - - - - 21.2 1010.2 0.0
25/12:30pm N 4 6 - - - - - - - 21.1 1010.6 0.0
25/12:00pm NNW 4 6 - - - - - - - 21.0 1010.7 0.0
25/11:30am NNW 4 6 - - - - - - - 21.0 1011.3 0.0
25/11:00am NNW 2 4 - - - - - - - 21.0 1011.5 0.0
25/10:30am NNW 3 5 - - - - - - - 20.9 1011.1 0.0
25/10:00am N 3 4 - - - - - - - 20.9 1011.3 0.0
25/09:30am NNW 1 2 - - - - - - - 20.9 1011.3 0.0
25/09:00am WNW 1 2 - - - - - - - 20.7 1011.5 0.4
25/08:30am W 1 3 - - - - - - - 19.8 1011.2 0.4
25/08:00am W 2 3 - - - - - - - 18.4 1011.2 0.4
25/07:30am CALM 0 0 - - - - - - - 17.4 1010.9 0.4
25/07:00am CALM 0 0 - - - - - - - 15.9 1011.0 0.4
25/06:30am W 1 2 - - - - - - - 16.1 1011.1 0.4
25/06:00am WNW 3 3 - - - - - - - 15.8 1011.0 0.4
25/05:30am SSW 1 2 - - - - - - - 16.0 1010.8 0.4
25/05:00am SW 2 3 - - - - - - - 16.2 1010.9 0.4
25/04:30am SSW 4 5 - - - - - - - 16.5 1011.1 0.4
25/04:00am SW 4 6 - - - - - - - 16.6 1011.3 0.4
25/03:30am SSW 4 5 - - - - - - - 16.3 1011.7 0.4
25/03:00am SSW 4 5 - - - - - - - 16.7 1012.1 0.4
25/02:30am CALM 0 0 - - - - - - - 17.1 1012.7 0.4
25/02:00am SW 2 3 - - - - - - - 16.6 1013.0 0.4
25/01:30am W 1 4 - - - - - - - 17.2 1013.8 0.4
25/01:00am CALM 0 3 - - - - - - - 17.6 1014.2 0.4
25/12:30am W 1 3 - - - - - - - 17.4 1014.6 0.4
25/12:00am SW 4 7 - - - - - - - 16.9 1014.6 0.4
 
Date/Time
EDT
Wind Sea
Height
m
Swell Vis
km
Cloud Weather Temp
°C
Press
MSL
hPa
Rain since
9am
mm
Dir  Spd
kts
Gust
kts
Height
m
Period
s
Dir
24/11:30pm WSW 5 9 - - - - - - - 16.9 1014.8 0.4
24/11:00pm WSW 5 8 - - - - - - - 16.8 1015.2 0.4
24/10:30pm WSW 8 14 - - - - - - - 16.8 1015.0 0.4
24/10:00pm WSW 7 11 - - - - - - - 16.7 1015.2 0.4
24/09:30pm WSW 7 11 - - - - - - - 16.8 1015.7 0.4
24/09:00pm WSW 6 9 - - - - - - - 16.9 1015.8 0.4
24/08:30pm SW 7 13 - - - - - - - 16.9 1015.9 0.4
24/08:00pm SW 7 11 - - - - - - - 16.8 1015.9 0.4
24/07:30pm SW 7 12 - - - - - - - 16.9 1016.0 0.4
24/07:00pm SW 6 10 - - - - - - - 17.3 1016.2 0.4
24/06:30pm SW 10 15 - - - - - - - 17.4 1016.2 0.4
24/06:00pm SSW 8 14 - - - - - - - 18.2 1016.4 0.4
24/05:30pm SW 10 14 - - - - - - - 17.9 1016.4 0.4
24/05:00pm SW 8 13 - - - - - - - 17.8 1016.6 0.4
24/04:30pm SSW 11 17 - - - - - - - 17.6 1016.9 0.4
24/04:00pm SSW 10 16 - - - - - - - 17.9 1017.2 0.0
24/03:30pm SSW 10 16 - - - - - - - 18.5 1017.4 0.0
24/03:00pm SSW 11 14 - - - - - - - 18.6 1017.8 0.0
24/02:30pm SSW 9 14 - - - - - - - 19.1 1018.5 0.0
24/02:00pm SSW 9 13 - - - - - - - 17.4 1019.2 0.0
24/01:30pm SSW 9 14 - - - - - - - 17.6 1019.3 0.0
24/01:00pm S 11 20 - - - - - - - 18.5 1019.4 0.0
24/12:30pm SW 9 14 - - - - - - - 17.1 1019.9 0.0
24/12:00pm SSW 10 15 - - - - - - - 18.4 1020.2 0.0
24/11:30am S 11 16 - - - - - - - 19.1 1020.1 0.0
24/11:00am SSW 10 13 - - - - - - - 18.2 1020.3 0.0
24/10:30am SSW 9 13 - - - - - - - 18.4 1020.4 0.0
24/10:00am SW 8 13 - - - - - - - 18.2 1020.2 0.0
24/09:30am SW 9 13 - - - - - - - 17.0 1019.9 0.0
24/09:00am SW 8 13 - - - - - - - 16.9 1019.7 1.6
24/08:30am SW 8 13 - - - - - - - 16.3 1019.5 1.6
24/08:00am SW 9 15 - - - - - - - 15.4 1019.4 1.6
24/07:30am SW 8 11 - - - - - - - 15.0 1019.3 1.6
24/07:00am SW 7 11 - - - - - - - 14.6 1018.9 1.6
24/06:30am SW 9 12 - - - - - - - 14.7 1018.5 1.6
24/06:00am SW 8 11 - - - - - - - 14.7 1018.3 1.6
24/05:30am SW 8 13 - - - - - - - 14.7 1018.1 1.6
24/05:00am SW 7 11 - - - - - - - 14.4 1018.0 1.6
24/04:30am WSW 6 9 - - - - - - - 14.0 1018.1 1.6
24/04:00am SW 7 10 - - - - - - - 14.0 1018.1 1.6
24/03:30am SW 8 17 - - - - - - - 15.3 1018.4 1.0
24/03:00am SSE 13 18 - - - - - - Recent precip. 17.2 1018.2 0.4
24/02:30am SSE 13 19 - - - - - - - 16.7 1018.2 0.4
24/02:00am SE 14 21 - - - - - - - 17.3 1018.3 0.2
24/01:30am SSE 11 18 - - - - - - - 17.8 1018.5 0.0
24/01:00am SSE 14 21 - - - - - - - 17.1 1018.8 0.0
24/12:30am SSE 11 17 - - - - - - - 17.5 1019.0 0.0
24/12:00am SSE 13 19 - - - - - - - 18.7 1019.0 0.0
 
Date/Time
EDT
Wind Sea
Height
m
Swell Vis
km
Cloud Weather Temp
°C
Press
MSL
hPa
Rain since
9am
mm
Dir  Spd
kts
Gust
kts
Height
m
Period
s
Dir
23/11:30pm SSE 14 20 - - - - - - - 18.7 1018.9 0.0
23/11:00pm SSE 13 18 - - - - - - - 18.7 1018.8 0.0
23/10:30pm SSE 15 20 - - - - - - - 18.6 1018.8 0.0
23/10:00pm SSE 15 21 - - - - - - - 18.7 1018.5 0.0
23/09:30pm SSE 15 21 - - - - - - - 18.6 1018.1 0.0
23/09:00pm SSE 16 23 - - - - - - - 18.8 1018.0 0.0
23/08:30pm SSE 15 21 - - - - - - - 18.8 1017.5 0.0
23/08:00pm SSE 15 21 - - - - - - - 18.7 1017.0 0.0
23/07:30pm SSE 17 25 - - - - - - - 18.9 1016.4 0.0
23/07:00pm SSE 17 22 - - - - - - - 18.9 1016.1 0.0
23/06:30pm SSE 15 21 - - - - - - - 19.0 1015.8 0.0
23/06:00pm SSE 16 23 - - - - - - - 19.4 1015.7 0.0
23/05:30pm SSE 15 23 - - - - - - - 19.7 1015.4 0.0
23/05:00pm SSE 15 20 - - - - - - - 20.1 1015.3 0.0
23/04:30pm SSE 15 21 - - - - - - - 20.3 1015.1 0.0
23/04:00pm ENE 16 20 - - - - - - - 20.0 1015.0 0.0
23/03:30pm ESE 14 18 - - - - - - - 19.8 1014.9 0.0
23/03:00pm ENE 13 18 - - - - - - - 19.8 1015.0 0.0
23/02:30pm E 12 16 - - - - - - - 19.6 1015.0 0.0
23/02:00pm NE 12 16 - - - - - - - 20.0 1015.0 0.0
23/01:30pm ESE 15 19 - - - - - - - 19.5 1014.8 0.0
23/01:00pm SE 13 17 - - - - - - - 19.4 1014.8 0.0
23/12:30pm NE 13 18 - - - - - - - 19.7 1014.8 0.0
23/12:00pm ENE 12 16 - - - - - - - 18.8 1014.9 0.0
23/11:30am SSW 8 13 - - - - - - - 18.7 1014.8 0.0
23/11:00am SSW 12 19 - - - - - - - 18.1 1014.7 0.0
23/10:30am SE 17 23 - - - - - - - 17.9 1014.4 0.0
23/10:00am ESE 16 24 - - - - - - - 17.8 1014.2 0.0
23/09:30am ESE 15 22 - - - - - - - 17.5 1013.8 0.0
23/09:00am SSW 13 20 - - - - - - - 17.2 1013.7 1.0
23/08:30am SW 8 13 - - - - - - - 16.9 1013.4 1.0
23/08:00am SSW 10 19 - - - - - - - 17.2 1013.1 1.0
23/07:30am S 14 20 - - - - - - - 16.6 1012.7 1.0
23/07:00am S 11 17 - - - - - - - 16.6 1012.3 1.0
23/06:30am E 13 18 - - - - - - - 17.0 1011.9 1.0
23/06:00am S 11 17 - - - - - - - 17.1 1011.4 1.0
23/05:30am S 13 22 - - - - - - - 17.3 1011.1 1.0
23/05:00am SW 8 13 - - - - - - - 17.2 1010.7 1.0
23/04:30am SW 6 9 - - - - - - - 17.8 1010.4 1.0
23/04:00am E 15 21 - - - - - - - 18.8 1010.3 1.0
23/03:30am SSE 13 19 - - - - - - - 18.8 1010.2 1.0
23/03:00am SSE 15 21 - - - - - - - 18.9 1010.2 1.0
23/02:30am SE 16 23 - - - - - - - 18.9 1010.2 1.0
23/02:24am SE 17 23 - - - - - - - 19.1 1010.2 1.0
23/02:22am SE 17 23 - - - - - - - 19.0 1010.2 1.0
23/02:00am SSE 16 23 - - - - - - - 19.1 1010.3 1.0
23/01:30am SE 17 23 - - - - - - - 19.1 1010.5 1.0
23/01:00am SSE 16 22 - - - - - - - 19.1 1010.7 1.0
23/12:51am ESE 19 24 - - - - - - - 19.2 1010.8 1.0
23/12:48am ESE 19 24 - - - - - - - 19.2 1010.8 1.0
23/12:44am E 20 25 - - - - - - - 19.2 1010.8 1.0
23/12:43am ENE 20 25 - - - - - - - 19.1 1010.8 1.0
23/12:41am E 20 25 - - - - - - - 19.1 1010.8 1.0
23/12:37am E 19 25 - - - - - - - 19.1 1010.8 1.0
23/12:35am ESE 18 25 - - - - - - - 19.0 1010.8 1.0
23/12:30am SE 15 24 - - - - - - - 18.7 1010.9 1.0
23/12:22am SSW 8 20 - - - - - - - 18.1 1010.9 1.0
23/12:00am WSW 4 7 - - - - - - - 17.5 1011.0 0.8
 
Date/Time
EDT
Wind Sea
Height
m
Swell Vis
km
Cloud Weather Temp
°C
Press
MSL
hPa
Rain since
9am
mm
Dir  Spd
kts
Gust
kts
Height
m
Period
s
Dir
22/11:30pm SW 7 11 - - - - - - - 17.8 1011.0 0.8
22/11:00pm SSW 10 17 - - - - - - - 18.2 1011.1 0.8
22/10:30pm SSW 5 8 - - - - - - - 18.5 1011.0 0.8
22/10:00pm SSW 6 11 - - - - - - - 18.8 1011.1 0.8
22/09:30pm SSW 9 21 - - - - - - - 19.2 1010.9 0.8
22/09:00pm SE 15 21 - - - - - - - 19.9 1010.6 0.8
22/08:30pm ESE 16 22 - - - - - - - 19.5 1010.1 0.8
22/08:00pm SE 17 24 - - - - - - - 19.3 1009.7 0.8
22/07:56pm SE 16 24 - - - - - - - 19.3 1009.6 0.8
22/07:54pm SSE 15 24 - - - - - - - 19.3 1009.6 0.8
22/07:40pm E 18 26 - - - - - - - 19.1 1009.4 0.8
22/07:35pm E 19 26 - - - - - - - 19.2 1009.2 0.8
22/07:32pm ESE 19 26 - - - - - - - 19.2 1009.2 0.8
22/07:30pm E 19 26 - - - - - - - 19.1 1009.1 0.8
22/07:17pm SE 18 24 - - - - - - - 19.2 1009.0 0.8
22/07:16pm SE 18 24 - - - - - - - 19.2 1009.0 0.8
22/07:07pm ESE 19 26 - - - - - - - 19.3 1008.8 0.8
22/07:04pm SE 18 26 - - - - - - - 19.2 1008.8 0.8
22/07:02pm SE 17 26 - - - - - - - 19.1 1008.8 0.8
22/07:01pm SE 17 26 - - - - - - - 19.1 1008.7 0.8
22/07:00pm SSE 16 26 - - - - - - - 19.2 1008.7 0.8
22/06:37pm ESE 19 25 - - - - - - - 18.5 1008.6 0.6
22/06:35pm SE 19 25 - - - - - - - 18.5 1008.6 0.6
22/06:30pm SSE 17 21 - - - - - - - 18.8 1008.5 0.6
22/06:18pm ENE 20 26 - - - - - - - 18.5 1008.4 0.6
22/06:17pm ENE 20 26 - - - - - - - 18.5 1008.4 0.6
22/06:13pm E 18 25 - - - - - - - 18.7 1008.4 0.6
22/06:11pm ENE 18 24 - - - - - - - 18.6 1008.4 0.6
22/06:00pm E 19 23 - - - - - - - 18.6 1008.3 0.6
22/05:55pm ENE 20 25 - - - - - - - 18.5 1008.2 0.6
22/05:44pm E 18 23 - - - - - - - 18.3 1008.2 0.6
22/05:30pm SE 19 23 - - - - - - - 18.7 1008.0 0.6
22/05:07pm E 19 25 - - - - - - - 18.6 1007.9 0.6
22/05:00pm E 18 25 - - - - - - - 18.6 1007.7 0.6
22/04:54pm ESE 18 25 - - - - - - - 18.6 1007.8 0.6
22/04:52pm ESE 18 25 - - - - - - - 18.5 1007.8 0.6
22/04:30pm SE 16 22 - - - - - - - 18.8 1007.6 0.6

Other formats

Comma delimited format used in spreadsheet applications
http://www.bom.gov.au/fwo/IDN60701/IDN60701.94938.axf

JavaScript Object Notation format (JSON) in row-major order
http://www.bom.gov.au/fwo/IDN60701/IDN60701.94938.json

Data quality

Most of these data are generated automatically and are frequently updated. Quality checks on data are not normally performed. It is possible for incorrect values to appear. Refer to information at About Latest Weather Observations and please check the disclaimer before using these data.